Terminal Aerodrome Forecast
Issued by NWS Cleveland, OH

Home | Current Version | Previous Version | Graphics & Text | Print | Product List | Glossary Off
Versions: 1 2 3 4 5 6 7 8 9 10 11 12 13 14 15 16 17

165
FTUS41 KCLE 181242 AAA
TAFYNG
TAF AMD
KYNG 181242Z 1813/1912 21006KT P6SM SCT012 BKN040
      TEMPO 1813/1814 BKN012
     FM181400 21010KT P6SM BKN012
     FM181530 24010KT P6SM BKN025
     FM181730 25012G20KT P6SM BKN040
     FM181900 26012G22KT P6SM BKN050
     FM190000 25007KT P6SM SCT200=

USA.gov is the U.S. government's official web portal to all federal, state and local government web resources and services.